Time;durP1;ratioP1;P1;durP2;ratioP2;P2;SDS_P1;SDS_P2;PMS_P1;PMS_P2;Temp;Humidity;BMP_temperature;BMP_pressure;BME280_temperature;BME280_humidity;BME280_pressure;Samples;Min_cycle;Max_cycle;Signal;HPM_P1;HPM_P2
2022/07/22 00:01:43;;;;;;;5.75;3.83;;;;;;;19.21;69.36;100742.88;5104098;28;20036;-70
2022/07/22 00:04:08;;;;;;;7.13;3.97;;;;;;;19.14;70.10;100737.00;5058106;28;20133;-70
2022/07/22 00:06:34;;;;;;;5.43;3.88;;;;;;;19.13;69.66;100727.72;5038512;28;20028;-70
2022/07/22 00:08:59;;;;;;;6.40;4.57;;;;;;;18.96;73.69;100728.72;5042231;28;20032;-70
2022/07/22 00:11:25;;;;;;;8.35;3.92;;;;;;;19.07;70.63;100728.28;5058673;28;20035;-70
2022/07/22 00:13:50;;;;;;;6.18;3.63;;;;;;;19.09;70.08;100731.59;5058773;28;20396;-70
2022/07/22 00:16:16;;;;;;;5.95;3.58;;;;;;;19.05;70.33;100725.81;5058749;28;20029;-70
2022/07/22 00:18:41;;;;;;;7.03;3.95;;;;;;;19.08;70.54;100727.13;5042341;28;20037;-70
2022/07/22 00:21:07;;;;;;;5.95;3.63;;;;;;;19.07;70.62;100729.13;5022301;28;20036;-70
2022/07/22 00:23:32;;;;;;;6.70;3.60;;;;;;;19.02;71.01;100723.69;5074826;28;20036;-70
2022/07/22 00:25:58;;;;;;;7.47;4.00;;;;;;;19.03;71.20;100721.69;5076295;28;20029;-70
2022/07/22 00:28:23;;;;;;;6.30;3.92;;;;;;;19.03;70.82;100718.88;5041682;28;20028;-71
2022/07/22 00:30:49;;;;;;;6.78;3.92;;;;;;;19.01;71.29;100718.44;5022187;28;20036;-70
2022/07/22 00:33:14;;;;;;;7.97;4.47;;;;;;;19.02;71.20;100720.06;5055965;28;20388;-70
2022/07/22 00:35:40;;;;;;;6.53;4.20;;;;;;;18.95;70.96;100723.44;5052138;28;20040;-71
2022/07/22 00:38:05;;;;;;;8.93;4.13;;;;;;;18.96;71.45;100716.63;5041201;28;20086;-70
2022/07/22 00:40:31;;;;;;;6.05;3.97;;;;;;;19.00;70.68;100723.25;5038665;28;20025;-70
2022/07/22 00:42:56;;;;;;;7.70;3.90;;;;;;;18.97;70.70;100716.31;5058152;28;20050;-71
2022/07/22 00:45:22;;;;;;;6.93;3.85;;;;;;;18.97;70.86;100716.31;5058540;28;20477;-70
2022/07/22 00:47:47;;;;;;;7.95;3.75;;;;;;;18.95;71.15;100709.38;5058268;28;20028;-70
2022/07/22 00:50:14;;;;;;;4.68;3.80;;;;;;;18.94;71.23;100714.19;5057830;28;20028;-70
2022/07/22 00:52:41;;;;;;;8.13;3.90;;;;;;;18.96;71.56;100711.81;5024228;28;20056;-70
2022/07/22 00:55:07;;;;;;;7.38;3.92;;;;;;;18.94;71.21;100704.91;5057923;28;20028;-70
2022/07/22 00:57:32;;;;;;;6.18;3.95;;;;;;;18.95;71.50;100710.19;5024252;28;20538;-70
2022/07/22 00:59:58;;;;;;;5.72;4.10;;;;;;;18.91;71.78;100702.78;5054910;28;20040;-70
2022/07/22 01:02:24;;;;;;;7.35;4.18;;;;;;;18.92;71.46;100710.06;5055954;28;20016;-70
2022/07/22 01:04:49;;;;;;;5.28;4.03;;;;;;;18.89;71.63;100705.97;5041446;28;20028;-70
2022/07/22 01:07:15;;;;;;;7.72;3.97;;;;;;;18.85;72.42;100705.00;5075865;28;20025;-70
2022/07/22 01:09:46;;;;;;;8.07;4.07;;;;;;;18.81;72.60;100708.84;5056836;28;20055;-70
2022/07/22 01:12:11;;;;;;;6.15;4.20;;;;;;;18.81;73.05;100704.03;5075872;28;20115;-70
2022/07/22 01:14:37;;;;;;;7.60;4.32;;;;;;;18.81;73.07;100714.47;5041194;28;20081;-71
2022/07/22 01:17:03;;;;;;;6.93;4.60;;;;;;;18.76;73.73;100707.06;5074380;28;20162;-70
2022/07/22 01:19:28;;;;;;;7.45;4.47;;;;;;;18.77;73.80;100702.25;5058074;28;20040;-70
2022/07/22 01:21:54;;;;;;;8.48;4.40;;;;;;;18.76;74.03;100707.06;5040028;28;20025;-70
2022/07/22 01:24:19;;;;;;;7.75;4.57;;;;;;;18.74;74.18;100695.31;5035837;28;20393;-70
2022/07/22 01:26:45;;;;;;;8.27;5.13;;;;;;;18.71;75.27;100688.38;5040703;28;21202;-70
2022/07/22 01:29:10;;;;;;;7.40;4.35;;;;;;;18.73;73.74;100690.84;5021808;28;20044;-70
2022/07/22 01:31:36;;;;;;;6.90;4.43;;;;;;;18.74;73.60;100689.69;5037381;28;20521;-70
2022/07/22 01:34:01;;;;;;;5.85;4.18;;;;;;;18.73;73.38;100688.84;5054635;28;20029;-70
2022/07/22 01:36:27;;;;;;;5.63;4.68;;;;;;;18.74;73.37;100693.34;5102531;28;20083;-70
2022/07/22 01:38:53;;;;;;;6.15;4.60;;;;;;;18.73;74.31;100691.66;5058245;28;20028;-70
2022/07/22 01:41:18;;;;;;;5.93;3.97;;;;;;;18.73;73.63;100697.28;5021283;28;20440;-70
2022/07/22 01:43:44;;;;;;;6.13;4.25;;;;;;;18.70;73.94;100689.53;5074363;28;20024;-70
2022/07/22 01:46:09;;;;;;;6.03;4.28;;;;;;;18.72;73.81;100694.81;5038199;28;20036;-70
2022/07/22 01:48:35;;;;;;;7.95;4.30;;;;;;;18.72;73.75;100695.66;5040442;28;20024;-70
2022/07/22 01:51:00;;;;;;;7.60;4.35;;;;;;;18.72;74.00;100692.00;5060911;28;20040;-70
2022/07/22 01:53:26;;;;;;;7.97;4.50;;;;;;;18.68;74.54;100696.69;5025962;28;20029;-70
2022/07/22 01:55:51;;;;;;;7.07;4.30;;;;;;;18.68;74.41;100693.88;5044718;28;20051;-70
2022/07/22 01:58:17;;;;;;;6.43;3.85;;;;;;;18.67;74.86;100686.59;5058051;28;20108;-70
2022/07/22 02:00:42;;;;;;;5.78;4.03;;;;;;;18.66;75.15;100685.75;5043799;28;20078;-70
2022/07/22 02:03:10;;;;;;;6.15;4.40;;;;;;;18.64;74.91;100698.56;5061552;28;20423;-70
2022/07/22 02:05:36;;;;;;;7.22;3.90;;;;;;;18.61;75.36;100693.59;5059139;28;20025;-70
2022/07/22 02:08:03;;;;;;;7.43;4.18;;;;;;;18.63;75.48;100699.69;5077664;28;20393;-70
2022/07/22 02:10:28;;;;;;;7.07;3.70;;;;;;;18.62;76.07;100690.44;5077554;28;20039;-70
2022/07/22 02:12:54;;;;;;;6.68;4.60;;;;;;;18.55;76.80;100678.91;5024856;28;20029;-70
2022/07/22 02:15:20;;;;;;;6.13;3.78;;;;;;;18.61;76.25;100682.34;5041010;28;20025;-70
2022/07/22 02:17:45;;;;;;;8.57;4.00;;;;;;;18.59;76.00;100670.63;5077458;28;20104;-70
2022/07/22 02:20:11;;;;;;;6.70;4.32;;;;;;;18.59;76.38;100679.06;5027648;28;20032;-70
2022/07/22 02:22:36;;;;;;;7.97;3.97;;;;;;;18.59;76.21;100673.44;5028104;28;20078;-70
2022/07/22 02:25:02;;;;;;;5.63;4.13;;;;;;;18.62;75.74;100672.75;5057565;28;20024;-70
2022/07/22 02:27:28;;;;;;;7.22;4.25;;;;;;;18.58;77.51;100678.22;5061913;28;20037;-70
2022/07/22 02:29:53;;;;;;;6.88;4.38;;;;;;;18.59;76.25;100682.69;5061077;28;20029;-70
2022/07/22 02:32:19;;;;;;;7.85;4.00;;;;;;;18.60;76.19;100675.06;5061073;28;20028;-70
2022/07/22 02:34:44;;;;;;;7.30;3.92;;;;;;;18.60;75.71;100681.50;5043100;28;20054;-70
2022/07/22 02:37:10;;;;;;;6.57;4.13;;;;;;;18.58;75.89;100672.59;5077638;28;20039;-70
2022/07/22 02:39:35;;;;;;;6.05;3.58;;;;;;;18.57;75.39;100667.31;5078574;28;20020;-70
2022/07/22 02:42:01;;;;;;;7.70;4.03;;;;;;;18.56;75.94;100668.50;5060534;28;20036;-70
2022/07/22 02:44:26;;;;;;;9.07;4.60;;;;;;;18.52;77.06;100662.72;5044257;28;20032;-70
2022/07/22 02:46:52;;;;;;;7.28;4.25;;;;;;;18.52;76.10;100657.91;5060685;28;20389;-70
2022/07/22 02:49:17;;;;;;;7.80;4.47;;;;;;;18.49;77.01;100661.41;5060229;28;20031;-70
2022/07/22 02:51:43;;;;;;;6.78;4.10;;;;;;;18.50;76.72;100656.66;5059248;28;20029;-70
2022/07/22 02:54:08;;;;;;;4.30;3.90;;;;;;;18.52;77.59;100657.09;5027178;28;20025;-70
2022/07/22 02:56:34;;;;;;;8.20;4.95;;;;;;;18.44;80.26;100647.59;5053179;28;20025;-70
2022/07/22 02:58:59;;;;;;;8.73;4.75;;;;;;;18.51;76.83;100658.28;5059906;28;20493;-70
2022/07/22 03:01:25;;;;;;;7.90;3.92;;;;;;;18.47;76.98;100651.69;5073060;28;20040;-70
2022/07/22 03:03:50;;;;;;;8.00;3.80;;;;;;;18.45;77.03;100648.41;5060507;28;20039;-70
2022/07/22 03:06:15;;;;;;;6.50;4.18;;;;;;;18.44;76.60;100641.97;5077673;28;20028;-70
2022/07/22 03:08:41;;;;;;;6.07;3.97;;;;;;;18.44;76.43;100650.41;5057014;28;20103;-70
2022/07/22 03:11:07;;;;;;;7.53;3.70;;;;;;;18.45;76.44;100637.97;5043666;28;20052;-70
2022/07/22 03:13:33;;;;;;;6.40;4.43;;;;;;;18.39;77.17;100635.75;5077930;28;20035;-70
2022/07/22 03:15:58;;;;;;;7.13;4.10;;;;;;;18.44;76.59;100641.13;5076523;28;20025;-70
2022/07/22 03:18:24;;;;;;;4.85;3.63;;;;;;;18.42;76.15;100635.88;5077681;28;20477;-70
2022/07/22 03:20:49;;;;;;;7.32;4.10;;;;;;;18.42;76.61;100635.03;5067273;28;20033;-70
2022/07/22 03:23:15;;;;;;;7.50;4.80;;;;;;;18.38;78.04;100629.25;5039821;28;20108;-70
2022/07/22 03:25:40;;;;;;;7.10;4.13;;;;;;;18.39;76.57;100630.13;5053375;28;20036;-70
2022/07/22 03:28:06;;;;;;;6.30;4.15;;;;;;;18.39;76.70;100630.13;5059665;28;20032;-70
2022/07/22 03:30:32;;;;;;;5.25;4.00;;;;;;;18.38;76.06;100628.44;5072744;28;20033;-70
2022/07/22 03:32:57;;;;;;;5.47;3.67;;;;;;;18.36;76.22;100617.56;5054787;28;20033;-70
2022/07/22 03:35:23;;;;;;;11.55;4.93;;;;;;;18.33;76.15;100614.59;5070594;28;20033;-70
2022/07/22 03:37:48;;;;;;;7.70;4.97;;;;;;;18.30;77.05;100616.09;5025110;28;20055;-71
2022/07/22 03:40:14;;;;;;;5.43;3.97;;;;;;;18.29;76.66;100608.84;5059597;28;20032;-70
2022/07/22 03:42:39;;;;;;;6.35;4.20;;;;;;;18.24;76.82;100607.06;5075957;28;20024;-70
2022/07/22 03:45:05;;;;;;;8.63;4.75;;;;;;;18.21;77.61;100612.56;5049911;28;20028;-70
2022/07/22 03:47:31;;;;;;;8.23;4.88;;;;;;;18.24;77.20;100617.47;5076032;28;20040;-70
2022/07/22 03:49:58;;;;;;;7.65;4.32;;;;;;;18.20;77.22;100602.47;5059289;28;20120;-70
2022/07/22 03:52:24;;;;;;;9.02;4.40;;;;;;;18.23;77.13;100604.59;5059030;28;20400;-70
2022/07/22 03:54:49;;;;;;;7.70;4.50;;;;;;;18.24;76.41;100600.63;5032133;28;20358;-70
2022/07/22 03:57:15;;;;;;;6.68;4.45;;;;;;;18.20;76.76;100602.47;5075355;28;20094;-70
2022/07/22 03:59:40;;;;;;;5.68;4.05;;;;;;;18.15;76.88;100602.69;5042400;28;20594;-70
2022/07/22 04:02:06;;;;;;;6.80;4.70;;;;;;;18.14;77.76;100599.06;5059264;28;20032;-70
2022/07/22 04:04:31;;;;;;;6.95;4.80;;;;;;;18.19;76.67;100595.19;5075051;28;20029;-70
2022/07/22 04:06:57;;;;;;;9.32;5.18;;;;;;;18.13;77.08;100588.16;5041459;28;20040;-70
2022/07/22 04:09:22;;;;;;;9.18;5.25;;;;;;;18.10;77.57;100595.28;5059180;28;20598;-70
2022/07/22 04:11:50;;;;;;;8.38;4.90;;;;;;;18.11;77.47;100590.47;5058869;28;20033;-70
2022/07/22 04:14:16;;;;;;;8.93;5.72;;;;;;;18.06;77.36;100592.34;5059136;28;20047;-71
2022/07/22 04:16:41;;;;;;;6.82;4.93;;;;;;;18.08;77.16;100592.00;5041938;28;20032;-70
2022/07/22 04:19:07;;;;;;;9.77;4.78;;;;;;;18.08;77.06;100598.44;5038922;28;20037;-71
2022/07/22 04:21:32;;;;;;;7.00;5.05;;;;;;;18.05;77.44;100584.22;5073942;28;20047;-70
2022/07/22 04:23:58;;;;;;;9.13;4.85;;;;;;;18.07;77.16;100593.97;5059010;28;20033;-70
2022/07/22 04:26:23;;;;;;;7.57;5.22;;;;;;;18.05;76.95;100592.66;5058272;28;20028;-70
2022/07/22 04:28:49;;;;;;;7.75;5.00;;;;;;;18.04;76.72;100586.22;5040539;28;20025;-70
2022/07/22 04:31:14;;;;;;;7.53;4.60;;;;;;;18.07;76.69;100581.91;5074151;28;20082;-70
2022/07/22 04:33:40;;;;;;;8.43;5.75;;;;;;;18.02;79.51;100582.94;5085696;28;20024;-70
2022/07/22 04:36:05;;;;;;;7.93;5.40;;;;;;;18.03;76.99;100590.22;5056821;28;20061;-70
2022/07/22 04:38:31;;;;;;;8.65;4.93;;;;;;;18.05;76.89;100582.28;5076089;28;20075;-71
2022/07/22 04:40:57;;;;;;;7.63;5.10;;;;;;;18.01;77.00;100591.72;5025329;28;20043;-70
2022/07/22 04:43:22;;;;;;;7.68;5.45;;;;;;;18.00;76.94;100588.09;5055068;28;20032;-70
2022/07/22 04:45:48;;;;;;;7.22;5.13;;;;;;;18.00;77.01;100576.84;5042064;28;20047;-70
2022/07/22 04:48:13;;;;;;;7.65;5.20;;;;;;;18.03;76.54;100572.53;5058077;28;20032;-70
2022/07/22 04:50:39;;;;;;;6.55;4.65;;;;;;;18.03;76.33;100566.91;5058029;28;20032;-71
2022/07/22 04:53:04;;;;;;;9.35;5.15;;;;;;;18.05;76.69;100570.19;5058253;28;20051;-70
2022/07/22 04:55:30;;;;;;;6.32;4.93;;;;;;;18.05;77.12;100559.78;5055916;28;20068;-70
2022/07/22 04:57:55;;;;;;;9.30;5.10;;;;;;;18.08;75.95;100563.91;5074514;28;20508;-70
2022/07/22 05:00:22;;;;;;;7.95;4.95;;;;;;;18.02;76.51;100554.00;5058304;28;20028;-70
2022/07/22 05:02:47;;;;;;;8.80;4.95;;;;;;;18.00;76.70;100545.94;5054969;28;20508;-70
2022/07/22 05:05:13;;;;;;;7.10;4.93;;;;;;;18.00;76.83;100554.38;5057788;28;20028;-70
2022/07/22 05:07:38;;;;;;;8.15;5.10;;;;;;;18.00;76.50;100551.56;5074246;28;20036;-70
2022/07/22 05:10:04;;;;;;;7.13;4.80;;;;;;;17.99;76.29;100551.88;5075906;28;20036;-70
2022/07/22 05:12:29;;;;;;;9.18;5.13;;;;;;;17.98;76.46;100548.25;5058289;28;20418;-70
2022/07/22 05:14:55;;;;;;;9.43;5.60;;;;;;;17.97;76.86;100549.44;5074947;28;20045;-71
2022/07/22 05:17:20;;;;;;;7.80;5.07;;;;;;;17.96;76.82;100546.97;5054610;28;20037;-70
2022/07/22 05:19:46;;;;;;;9.23;5.28;;;;;;;17.99;76.97;100560.31;5057308;28;20443;-70
2022/07/22 05:22:12;;;;;;;8.15;5.40;;;;;;;17.97;76.63;100557.88;5074832;28;20028;-70
2022/07/22 05:24:37;;;;;;;10.18;6.25;;;;;;;17.96;78.75;100561.00;5043224;28;20036;-70
2022/07/22 05:27:03;;;;;;;11.43;6.70;;;;;;;17.94;78.55;100564.19;5074211;28;20028;-70
2022/07/22 05:29:28;;;;;;;8.93;5.70;;;;;;;17.93;77.50;100554.09;5043670;28;20456;-70
2022/07/22 05:31:54;;;;;;;8.40;5.40;;;;;;;17.94;77.56;100563.34;5045330;28;20070;-70
2022/07/22 05:34:19;;;;;;;7.78;5.10;;;;;;;17.94;76.86;100564.19;5045640;28;20028;-70
2022/07/22 05:36:45;;;;;;;9.95;5.78;;;;;;;17.98;77.45;100564.31;5035632;28;20067;-70
2022/07/22 05:39:10;;;;;;;9.70;6.05;;;;;;;17.99;77.70;100566.75;5061872;28;20107;-70
2022/07/22 05:41:37;;;;;;;8.63;5.75;;;;;;;17.98;76.71;100562.31;5061565;28;20071;-70
2022/07/22 05:44:03;;;;;;;7.60;5.47;;;;;;;18.05;76.64;100559.78;5062091;28;20489;-70
2022/07/22 05:46:28;;;;;;;8.40;5.40;;;;;;;18.05;76.56;100564.56;5078025;28;20082;-70
2022/07/22 05:48:54;;;;;;;8.30;5.15;;;;;;;18.09;76.77;100569.16;5045228;28;20036;-70
2022/07/22 05:51:20;;;;;;;6.82;5.38;;;;;;;18.15;76.54;100568.97;5078834;28;20037;-70
2022/07/22 05:53:45;;;;;;;7.50;5.82;;;;;;;18.20;76.35;100571.56;5061261;28;20021;-71
2022/07/22 05:56:11;;;;;;;10.68;6.10;;;;;;;18.23;77.27;100574.50;5061128;28;20031;-70
2022/07/22 05:58:38;;;;;;;9.38;6.50;;;;;;;18.27;77.87;100581.06;5027263;28;20449;-70
2022/07/22 06:01:03;;;;;;;7.35;5.63;;;;;;;18.33;76.95;100573.28;5058095;28;20029;-70
2022/07/22 06:03:29;;;;;;;10.13;5.30;;;;;;;18.39;76.58;100583.13;5059395;28;20050;-70
2022/07/22 06:05:54;;;;;;;8.63;5.35;;;;;;;18.44;76.03;100582.06;5044085;28;20039;-70
2022/07/22 06:08:20;;;;;;;7.93;5.25;;;;;;;18.50;75.91;100584.34;5041234;28;20028;-70
2022/07/22 06:10:45;;;;;;;8.80;5.78;;;;;;;18.56;75.93;100584.94;5061083;28;20036;-70
2022/07/22 06:13:11;;;;;;;7.90;5.63;;;;;;;18.63;75.65;100590.00;5044529;28;20037;-70
2022/07/22 06:15:36;;;;;;;7.72;5.07;;;;;;;18.72;75.27;100588.75;5042274;28;20040;-70
2022/07/22 06:18:02;;;;;;;9.98;6.93;;;;;;;18.78;76.94;100592.19;5078961;28;20033;-70
2022/07/22 06:20:27;;;;;;;9.90;6.07;;;;;;;18.85;77.00;100598.06;5058684;28;20040;-70
2022/07/22 06:22:53;;;;;;;8.82;5.95;;;;;;;18.94;75.81;100610.06;5044549;28;20036;-64
2022/07/22 06:25:18;;;;;;;8.45;5.63;;;;;;;19.04;75.92;100602.34;5069091;28;20493;-68
2022/07/22 06:27:44;;;;;;;8.68;5.25;;;;;;;19.19;75.04;100607.25;5073507;28;20063;-68
2022/07/22 06:30:10;;;;;;;7.75;5.07;;;;;;;19.32;75.22;100602.47;5077060;28;20032;-67
2022/07/22 06:32:35;;;;;;;13.27;6.43;;;;;;;19.41;75.50;100617.25;5044337;28;20086;-65
2022/07/22 06:35:02;;;;;;;8.25;5.22;;;;;;;19.51;74.92;100625.25;5057062;28;20037;-71
2022/07/22 06:37:27;;;;;;;11.95;6.38;;;;;;;19.58;75.25;100616.19;5041254;28;20082;-71
2022/07/22 06:39:53;;;;;;;9.98;6.78;;;;;;;19.66;75.13;100620.94;5054094;28;20044;-71
2022/07/22 06:42:18;;;;;;;8.95;5.85;;;;;;;19.74;74.16;100622.81;5077142;28;20029;-71
2022/07/22 06:44:43;;;;;;;8.05;5.70;;;;;;;19.81;73.57;100611.78;5078427;28;20032;-71
2022/07/22 06:47:09;;;;;;;8.63;5.90;;;;;;;19.90;73.96;100616.47;5060088;28;20024;-71
2022/07/22 06:49:34;;;;;;;17.88;7.20;;;;;;;19.95;75.39;100610.59;5076573;28;20032;-70
2022/07/22 06:52:01;;;;;;;16.45;7.70;;;;;;;20.00;75.27;100619.63;5077271;28;20025;-71
2022/07/22 06:54:27;;;;;;;10.48;6.25;;;;;;;20.06;74.29;100611.75;5040421;28;20041;-71
2022/07/22 06:56:53;;;;;;;9.95;6.25;;;;;;;20.12;73.50;100599.03;5054399;28;20709;-70
2022/07/22 06:59:18;;;;;;;9.23;7.13;;;;;;;20.19;74.33;100604.06;5072692;28;20048;-70
2022/07/22 07:01:44;;;;;;;9.05;7.22;;;;;;;20.18;75.60;100597.59;5093242;28;20024;-71
2022/07/22 07:04:09;;;;;;;11.05;7.78;;;;;;;20.24;76.37;100596.16;5041972;28;20033;-70
2022/07/22 07:06:35;;;;;;;12.60;7.25;;;;;;;20.28;75.84;100583.00;5057097;28;20021;-71
2022/07/22 07:09:00;;;;;;;10.60;7.28;;;;;;;20.34;76.00;100589.22;5023938;28;20033;-70
2022/07/22 07:11:26;;;;;;;10.13;6.55;;;;;;;20.42;74.80;100588.22;5043519;28;20024;-71
2022/07/22 07:13:51;;;;;;;12.00;7.35;;;;;;;20.46;75.00;100582.69;5041887;28;20040;-70
2022/07/22 07:16:17;;;;;;;12.05;7.63;;;;;;;20.47;75.92;100582.31;5039921;28;20132;-71
2022/07/22 07:18:43;;;;;;;15.13;7.88;;;;;;;20.49;76.08;100576.31;5059001;28;20028;-71
2022/07/22 07:21:08;;;;;;;8.45;7.25;;;;;;;20.56;75.80;100579.38;5076102;28;20083;-71
2022/07/22 07:23:34;;;;;;;7.45;5.68;;;;;;;20.63;73.53;100576.75;5059437;28;20071;-70
2022/07/22 07:25:59;;;;;;;11.48;6.82;;;;;;;20.66;74.11;100575.22;5058657;28;20020;-70
2022/07/22 07:28:25;;;;;;;11.32;7.60;;;;;;;20.70;74.95;100571.31;5057261;28;20029;-71
2022/07/22 07:30:50;;;;;;;12.32;6.40;;;;;;;20.80;73.18;100577.59;5052730;28;20412;-71
2022/07/22 07:33:16;;;;;;;12.68;6.40;;;;;;;20.85;73.30;100568.88;5077006;28;20033;-71
2022/07/22 07:35:41;;;;;;;10.05;6.28;;;;;;;20.95;72.42;100572.00;5082757;28;20038;-71
2022/07/22 07:38:07;;;;;;;9.07;6.43;;;;;;;21.05;73.26;100566.97;5059521;28;20455;-71
2022/07/22 07:40:32;;;;;;;10.23;6.60;;;;;;;21.12;72.41;100551.03;5076126;28;20665;-71
2022/07/22 07:42:58;;;;;;;12.63;6.88;;;;;;;21.21;73.15;100548.03;5055237;28;20039;-71
2022/07/22 07:45:24;;;;;;;9.55;6.55;;;;;;;21.29;72.82;100549.03;5056463;28;20031;-71
2022/07/22 07:47:49;;;;;;;11.98;7.50;;;;;;;21.38;73.06;100535.56;5076810;28;20025;-71
2022/07/22 07:50:15;;;;;;;15.88;7.88;;;;;;;21.46;73.13;100548.66;5059161;28;20031;-71
2022/07/22 07:52:41;;;;;;;12.00;7.65;;;;;;;21.58;73.02;100551.38;5039017;28;20421;-71
2022/07/22 07:55:07;;;;;;;11.23;7.82;;;;;;;21.71;72.34;100554.09;5054697;28;20405;-71
2022/07/22 07:57:33;;;;;;;9.32;7.78;;;;;;;21.80;72.12;100564.00;5058029;28;20029;-71
2022/07/22 07:59:58;;;;;;;9.85;6.90;;;;;;;21.92;71.45;100565.03;5059069;28;20101;-71
2022/07/22 08:02:24;;;;;;;10.13;6.47;;;;;;;22.10;69.80;100571.91;5092829;28;20028;-71
2022/07/22 08:04:49;;;;;;;10.80;6.70;;;;;;;22.21;69.87;100575.03;5059064;28;20025;-71
2022/07/22 08:07:15;;;;;;;8.35;6.30;;;;;;;22.38;68.53;100563.25;5058970;28;20464;-71
2022/07/22 08:09:41;;;;;;;13.07;7.13;;;;;;;22.47;68.74;100572.31;5042189;28;20085;-71
2022/07/22 08:12:06;;;;;;;11.52;7.13;;;;;;;22.60;67.91;100572.97;5022663;28;20031;-71
2022/07/22 08:14:32;;;;;;;11.52;6.50;;;;;;;22.68;67.83;100571.13;5058976;28;20051;-71
2022/07/22 08:16:58;;;;;;;10.50;6.35;;;;;;;22.75;66.93;100586.19;5038892;28;20510;-70
2022/07/22 08:19:23;;;;;;;8.55;6.68;;;;;;;22.82;66.22;100571.38;5038843;28;20064;-71
2022/07/22 08:21:49;;;;;;;10.10;7.65;;;;;;;22.88;66.12;100577.56;5057458;28;20025;-71
2022/07/22 08:24:14;;;;;;;9.00;6.63;;;;;;;22.92;66.11;100578.44;5042411;28;20120;-71
2022/07/22 08:26:40;;;;;;;9.95;6.97;;;;;;;22.93;66.24;100583.72;5038972;28;20024;-70
2022/07/22 08:29:07;;;;;;;10.65;7.72;;;;;;;22.94;66.11;100578.88;5070991;28;20036;-71
2022/07/22 08:31:34;;;;;;;10.85;7.50;;;;;;;22.95;66.31;100578.50;5042153;28;20024;-71
2022/07/22 08:34:01;;;;;;;11.77;8.30;;;;;;;22.85;66.73;100578.31;5059191;28;20059;-71
2022/07/22 08:36:27;;;;;;;11.57;7.47;;;;;;;22.78;67.25;100576.16;5058776;28;20028;-71
2022/07/22 08:38:52;;;;;;;13.07;7.65;;;;;;;22.77;67.62;100585.84;5041355;28;20024;-71
2022/07/22 08:41:18;;;;;;;12.15;8.20;;;;;;;22.71;67.51;100593.81;5038538;28;20036;-71
2022/07/22 08:43:44;;;;;;;12.77;7.97;;;;;;;22.71;67.55;100601.50;5057538;28;20022;-71
2022/07/22 08:46:09;;;;;;;12.82;7.10;;;;;;;22.66;67.32;100610.28;5021813;28;20033;-71
2022/07/22 08:48:38;;;;;;;11.38;7.47;;;;;;;22.64;67.58;100610.66;5051039;28;20056;-71
2022/07/22 08:51:04;;;;;;;11.52;7.57;;;;;;;22.60;67.89;100617.44;5058079;28;20029;-70
2022/07/22 08:53:29;;;;;;;11.23;7.20;;;;;;;22.51;68.01;100632.66;5041656;28;20035;-71
2022/07/22 08:55:55;;;;;;;10.07;7.82;;;;;;;22.51;67.98;100632.66;5057797;28;20367;-71
2022/07/22 08:58:20;;;;;;;10.32;6.90;;;;;;;22.48;67.56;100632.56;5057255;28;20072;-70
2022/07/22 09:00:46;;;;;;;14.23;6.97;;;;;;;22.45;67.33;100624.81;5023127;28;20466;-71
2022/07/22 09:03:22;;;;;;;11.15;7.07;;;;;;;22.38;67.88;100613.34;5021958;28;20032;-71
2022/07/22 09:05:50;;;;;;;14.75;8.38;;;;;;;22.28;68.42;100609.91;5073909;28;20025;-70
2022/07/22 09:08:15;;;;;;;11.18;6.90;;;;;;;22.27;68.46;100601.81;5057876;28;20032;-70
2022/07/22 09:10:41;;;;;;;9.98;7.20;;;;;;;22.17;68.80;100611.66;5041491;28;20397;-71
2022/07/22 09:13:08;;;;;;;10.18;6.93;;;;;;;22.17;68.86;100616.50;5074378;28;20024;-70
2022/07/22 09:15:40;;;;;;;10.85;6.60;;;;;;;22.15;68.69;100630.19;5041219;28;20040;-70
2022/07/22 09:18:06;;;;;;;11.30;6.55;;;;;;;22.14;68.96;100637.03;5058365;28;20090;-70
2022/07/22 09:20:32;;;;;;;10.00;6.40;;;;;;;22.11;71.18;100637.78;5073873;28;20032;-70
2022/07/22 09:22:58;;;;;;;11.63;7.22;;;;;;;22.04;71.19;100635.63;5041115;28;20671;-70
2022/07/22 09:25:31;;;;;;;9.13;6.93;;;;;;;22.01;73.08;100625.88;5091049;28;20027;-70
2022/07/22 09:28:19;;;;;;;9.15;6.63;;;;;;;21.94;72.76;100637.00;5041696;28;20036;-70
2022/07/22 09:30:54;;;;;;;8.43;6.10;;;;;;;21.85;72.36;100634.38;5057695;28;20529;-70
2022/07/22 09:33:20;;;;;;;11.90;7.32;;;;;;;21.78;73.08;100614.41;5024761;28;20497;-70
2022/07/22 09:35:46;;;;;;;13.70;7.93;;;;;;;21.65;75.15;100610.09;5041252;28;20036;-70
2022/07/22 09:38:12;;;;;;;10.77;7.60;;;;;;;21.56;75.37;100607.44;5074210;28;20029;-70
2022/07/22 09:40:45;;;;;;;13.45;8.43;;;;;;;21.45;76.60;100626.13;5057674;28;20040;-70
2022/07/22 09:43:12;;;;;;;9.98;6.80;;;;;;;21.36;75.21;100620.63;5021658;28;20029;-70
2022/07/22 09:45:44;;;;;;;13.25;6.88;;;;;;;21.30;74.84;100624.09;5062360;28;20076;-70
2022/07/22 09:48:09;;;;;;;13.05;7.53;;;;;;;21.24;74.61;100628.38;5067245;28;20032;-70
2022/07/22 09:50:35;;;;;;;12.32;7.47;;;;;;;21.17;75.85;100621.38;5057550;28;20029;-70
2022/07/22 09:53:00;;;;;;;15.82;7.13;;;;;;;21.11;77.45;100617.16;5054101;28;20033;-70
2022/07/22 09:55:27;;;;;;;9.25;6.35;;;;;;;21.04;75.62;100628.28;5068460;28;20374;-70
2022/07/22 09:57:53;;;;;;;12.57;6.97;;;;;;;21.00;75.74;100635.00;5065466;28;20052;-70
2022/07/22 10:00:23;;;;;;;12.82;7.38;;;;;;;20.94;76.61;100628.78;5037797;28;20481;-70
2022/07/22 10:02:53;;;;;;;11.10;6.85;;;;;;;20.91;76.67;100623.88;5055987;28;20029;-70
2022/07/22 10:05:21;;;;;;;11.60;6.93;;;;;;;20.87;76.71;100631.44;5090760;28;20020;-70
2022/07/22 10:07:48;;;;;;;10.55;7.20;;;;;;;20.82;78.03;100638.16;5075782;28;20052;-70
2022/07/22 10:10:15;;;;;;;11.70;6.68;;;;;;;20.80;77.20;100632.03;5075119;28;20025;-70
2022/07/22 10:12:41;;;;;;;10.52;7.75;;;;;;;20.78;78.40;100625.94;5078108;28;20036;-70
2022/07/22 10:15:07;;;;;;;12.35;8.38;;;;;;;20.75;80.06;100627.50;5044394;28;20043;-70
2022/07/22 10:17:34;;;;;;;10.07;7.20;;;;;;;20.75;79.61;100633.16;5044714;28;20029;-70
2022/07/22 10:20:00;;;;;;;14.75;8.82;;;;;;;20.71;80.76;100631.38;5060793;28;20103;-70
2022/07/22 10:22:47;;;;;;;11.30;7.63;;;;;;;20.70;80.77;100624.94;5058677;28;20107;-70
2022/07/22 10:25:13;;;;;;;8.90;6.35;;;;;;;20.70;81.16;100636.22;5093913;28;20040;-70
2022/07/22 10:27:58;;;;;;;12.40;7.32;;;;;;;20.70;80.19;100638.22;5027650;28;20039;-71
2022/07/22 10:30:24;;;;;;;10.13;6.50;;;;;;;20.72;79.36;100644.31;5075515;28;20117;-70
2022/07/22 10:33:04;;;;;;;12.85;7.43;;;;;;;20.72;81.20;100650.78;5077615;28;20036;-70
2022/07/22 10:35:32;;;;;;;9.88;6.53;;;;;;;20.71;79.56;100643.50;5077164;28;20036;-70
2022/07/22 10:38:00;;;;;;;16.85;9.52;;;;;;;20.71;83.42;100642.69;5027354;28;20103;-70
2022/07/22 10:40:28;;;;;;;17.00;9.30;;;;;;;20.68;84.92;100638.56;5060401;28;20429;-70
2022/07/22 10:42:56;;;;;;;14.07;10.18;;;;;;;20.66;85.74;100640.13;5028169;28;20481;-70
2022/07/22 10:45:24;;;;;;;15.05;10.20;;;;;;;20.61;87.08;100634.72;5077310;28;20044;-70
2022/07/22 10:48:07;;;;;;;16.45;10.90;;;;;;;20.60;87.47;100639.53;5046062;28;20036;-70
2022/07/22 10:50:37;;;;;;;17.00;11.27;;;;;;;20.57;87.75;100637.44;5078106;28;20194;-70
2022/07/22 10:53:20;;;;;;;15.55;10.82;;;;;;;20.55;88.31;100639.78;5051067;28;20036;-70
2022/07/22 10:56:05;;;;;;;13.23;10.40;;;;;;;20.55;86.33;100650.25;5075785;28;20051;-70
2022/07/22 10:58:34;;;;;;;13.40;9.27;;;;;;;20.53;86.56;100642.16;5043772;28;20072;-70
2022/07/22 11:01:03;;;;;;;13.20;8.18;;;;;;;20.55;83.27;100644.63;5077184;28;20040;-70
2022/07/22 11:03:29;;;;;;;15.77;9.43;;;;;;;20.54;84.29;100643.81;5060436;28;20040;-70
2022/07/22 11:05:56;;;;;;;15.93;11.48;;;;;;;20.53;85.68;100647.78;5043711;28;20032;-70
2022/07/22 11:08:22;;;;;;;14.15;10.65;;;;;;;20.50;86.77;100640.88;5077622;28;20041;-70
2022/07/22 11:10:49;;;;;;;16.05;13.10;;;;;;;20.52;89.29;100646.13;5073276;28;20036;-70
2022/07/22 11:13:31;;;;;;;15.43;11.45;;;;;;;20.50;89.61;100640.88;5060130;28;20035;-71
2022/07/22 11:16:12;;;;;;;17.58;13.88;;;;;;;20.48;91.85;100639.56;5059142;28;20040;-70
2022/07/22 11:19:07;;;;;;;18.23;13.48;;;;;;;20.47;91.92;100644.38;5045144;28;20032;-70